Time;durP1;ratioP1;P1;durP2;ratioP2;P2;SDS_P1;SDS_P2;PMS_P1;PMS_P2;Temp;Humidity;BMP_temperature;BMP_pressure;BME280_temperature;BME280_humidity;BME280_pressure;Samples;Min_cycle;Max_cycle;Signal;HPM_P1;HPM_P2
2021/11/13 00:00:33;;;;;;;44.92;21.48;;;;;;;;;;4988549;28;20058;-69
2021/11/13 00:02:59;;;;;;;51.97;22.52;;;;;;;;;;4994412;28;20129;-69
2021/11/13 00:05:25;;;;;;;47.22;22.85;;;;;;;;;;4989437;28;20065;-69
2021/11/13 00:07:52;;;;;;;48.22;23.25;;;;;;;;;;4988081;28;20037;-69
2021/11/13 00:10:19;;;;;;;47.30;21.33;;;;;;;;;;4987681;28;20022;-69
2021/11/13 00:12:46;;;;;;;47.58;21.98;;;;;;;;;;5001466;28;20042;-69
2021/11/13 00:15:15;;;;;;;46.33;21.98;;;;;;;;;;5009674;28;20031;-69
2021/11/13 00:17:40;;;;;;;48.05;23.17;;;;;;;;;;5011591;28;20023;-69
2021/11/13 00:20:07;;;;;;;49.20;22.05;;;;;;;;;;5014729;28;20033;-69
2021/11/13 00:22:33;;;;;;;47.42;22.75;;;;;;;;;;5013809;28;20030;-69
2021/11/13 00:24:59;;;;;;;50.08;22.70;;;;;;;;;;5012109;28;20041;-69
2021/11/13 00:27:24;;;;;;;54.95;21.80;;;;;;;;;;5013741;28;20038;-69
2021/11/13 00:29:50;;;;;;;50.30;23.65;;;;;;;;;;5022100;28;20034;-69
2021/11/13 00:32:16;;;;;;;45.25;23.67;;;;;;;;;;5013053;28;20010;-68
2021/11/13 00:34:42;;;;;;;47.80;23.00;;;;;;;;;;5013424;28;20369;-69
2021/11/13 00:37:08;;;;;;;52.05;21.67;;;;;;;;;;5012411;28;20047;-69
2021/11/13 00:39:34;;;;;;;51.95;23.33;;;;;;;;;;5013076;28;20041;-69
2021/11/13 00:42:00;;;;;;;53.92;23.75;;;;;;;;;;5013018;28;20034;-69
2021/11/13 00:44:26;;;;;;;50.47;23.17;;;;;;;;;;5011941;28;20035;-69
2021/11/13 00:46:52;;;;;;;51.80;24.27;;;;;;;;;;5012086;28;20034;-69
2021/11/13 00:49:19;;;;;;;54.45;23.50;;;;;;;;;;5011687;28;20030;-69
2021/11/13 00:51:45;;;;;;;51.55;23.17;;;;;;;;;;5012118;28;20061;-69
2021/11/13 00:54:11;;;;;;;45.08;22.90;;;;;;;;;;5008829;28;20022;-68
2021/11/13 00:56:37;;;;;;;58.55;24.63;;;;;;;;;;4997134;28;20028;-69
2021/11/13 00:59:04;;;;;;;54.78;24.67;;;;;;;;;;5006988;28;20121;-69
2021/11/13 01:01:30;;;;;;;49.42;23.13;;;;;;;;;;5002394;28;20097;-69
2021/11/13 01:03:57;;;;;;;49.47;22.83;;;;;;;;;;5003519;28;20125;-69
2021/11/13 01:06:24;;;;;;;47.90;22.83;;;;;;;;;;5000460;28;20022;-69
2021/11/13 01:08:50;;;;;;;48.05;22.30;;;;;;;;;;4999448;28;20034;-69
2021/11/13 01:11:17;;;;;;;46.63;22.63;;;;;;;;;;4999142;28;20088;-69
2021/11/13 01:13:44;;;;;;;54.20;23.30;;;;;;;;;;4991449;28;20096;-69
2021/11/13 01:16:10;;;;;;;47.30;22.95;;;;;;;;;;4994096;28;20105;-68
2021/11/13 01:18:38;;;;;;;52.58;23.48;;;;;;;;;;5000768;28;20468;-69
2021/11/13 01:21:04;;;;;;;48.60;23.05;;;;;;;;;;5000212;28;20086;-69
2021/11/13 01:23:30;;;;;;;51.70;23.85;;;;;;;;;;4994816;28;20045;-69
2021/11/13 01:25:56;;;;;;;42.85;21.08;;;;;;;;;;4994231;28;20030;-69
2021/11/13 01:28:22;;;;;;;54.70;23.52;;;;;;;;;;4992000;28;20113;-69
2021/11/13 01:30:48;;;;;;;58.67;25.33;;;;;;;;;;4993179;28;20039;-69
2021/11/13 01:33:14;;;;;;;53.78;22.75;;;;;;;;;;4992898;28;20037;-69
2021/11/13 01:35:40;;;;;;;49.53;24.10;;;;;;;;;;4992603;28;20026;-69
2021/11/13 01:38:06;;;;;;;49.22;23.45;;;;;;;;;;4992886;28;20121;-69
2021/11/13 01:40:32;;;;;;;51.85;24.23;;;;;;;;;;4993273;28;20058;-69
2021/11/13 01:42:58;;;;;;;43.35;21.67;;;;;;;;;;4990197;28;20026;-69
2021/11/13 01:45:25;;;;;;;49.72;23.35;;;;;;;;;;4990618;28;20057;-69
2021/11/13 01:47:51;;;;;;;44.22;21.92;;;;;;;;;;4991679;28;20058;-69
2021/11/13 01:50:19;;;;;;;45.22;21.75;;;;;;;;;;4992645;28;20124;-69
2021/11/13 01:52:46;;;;;;;45.75;22.60;;;;;;;;;;4992213;28;20057;-69
2021/11/13 01:55:12;;;;;;;48.67;21.42;;;;;;;;;;4991901;28;20022;-69
2021/11/13 01:57:46;;;;;;;48.90;22.80;;;;;;;;;;4992852;28;20484;-69
2021/11/13 02:00:14;;;;;;;50.35;23.67;;;;;;;;;;4991497;28;20030;-69
2021/11/13 02:02:41;;;;;;;48.22;22.63;;;;;;;;;;4991718;28;20125;-69
2021/11/13 02:05:07;;;;;;;43.83;20.85;;;;;;;;;;5033172;23;20417;-70
2021/11/13 02:07:33;;;;;;;50.63;23.95;;;;;;;;;;5031867;28;20099;-73
2021/11/13 02:09:58;;;;;;;42.05;20.75;;;;;;;;;;5031243;28;20091;-73
2021/11/13 02:12:24;;;;;;;51.08;22.10;;;;;;;;;;5030832;28;20029;-73
2021/11/13 02:14:50;;;;;;;45.70;22.73;;;;;;;;;;5042147;28;20514;-73
2021/11/13 02:17:16;;;;;;;42.42;20.08;;;;;;;;;;5029559;28;20025;-73
2021/11/13 02:19:42;;;;;;;43.58;19.77;;;;;;;;;;5015682;28;20030;-73
2021/11/13 02:22:08;;;;;;;47.35;20.85;;;;;;;;;;5019548;28;20041;-73
2021/11/13 02:24:34;;;;;;;46.28;20.50;;;;;;;;;;5018091;28;20030;-73
2021/11/13 02:27:00;;;;;;;34.95;17.60;;;;;;;;;;5019480;28;20037;-73
2021/11/13 02:29:26;;;;;;;39.80;17.52;;;;;;;;;;5019691;28;20083;-73
2021/11/13 02:31:54;;;;;;;34.42;17.23;;;;;;;;;;5023655;28;20025;-73
2021/11/13 02:34:20;;;;;;;36.70;16.52;;;;;;;;;;5021729;28;20469;-73
2021/11/13 02:36:46;;;;;;;35.90;15.50;;;;;;;;;;5019071;28;20104;-73
2021/11/13 02:39:13;;;;;;;33.45;14.10;;;;;;;;;;5027713;28;20021;-73
2021/11/13 02:41:43;;;;;;;31.90;14.77;;;;;;;;;;5019049;28;20033;-73
2021/11/13 02:44:11;;;;;;;33.40;13.52;;;;;;;;;;5026180;28;20029;-73
2021/11/13 02:46:37;;;;;;;39.38;14.90;;;;;;;;;;5030198;28;20550;-73
2021/11/13 02:49:03;;;;;;;35.50;13.52;;;;;;;;;;5025674;28;20488;-73
2021/11/13 02:51:30;;;;;;;34.13;12.50;;;;;;;;;;5028937;28;20410;-73
2021/11/13 02:53:56;;;;;;;45.53;13.85;;;;;;;;;;5023894;28;20124;-73
2021/11/13 02:56:22;;;;;;;27.00;11.98;;;;;;;;;;5018756;28;20105;-73
2021/11/13 02:58:49;;;;;;;37.85;12.43;;;;;;;;;;5018900;28;20371;-73
2021/11/13 03:01:16;;;;;;;32.72;12.80;;;;;;;;;;5029732;28;20022;-73
2021/11/13 03:03:42;;;;;;;36.00;13.82;;;;;;;;;;5030318;28;20530;-73
2021/11/13 03:06:10;;;;;;;38.72;13.52;;;;;;;;;;5029966;28;20120;-73
2021/11/13 03:08:36;;;;;;;36.65;10.90;;;;;;;;;;5020476;28;20022;-73
2021/11/13 03:11:04;;;;;;;36.45;12.60;;;;;;;;;;5017813;28;20026;-73
2021/11/13 03:13:31;;;;;;;24.60;11.05;;;;;;;;;;5018562;28;20025;-73
2021/11/13 03:15:57;;;;;;;38.03;13.13;;;;;;;;;;5022302;28;20025;-73
2021/11/13 03:18:23;;;;;;;30.10;11.63;;;;;;;;;;5028200;28;20102;-73
2021/11/13 03:20:49;;;;;;;29.60;11.07;;;;;;;;;;5028985;28;20124;-73
2021/11/13 03:23:15;;;;;;;37.03;12.95;;;;;;;;;;5016936;28;20022;-73
2021/11/13 03:25:45;;;;;;;31.80;12.38;;;;;;;;;;5025427;28;20108;-73
2021/11/13 03:28:13;;;;;;;26.40;11.57;;;;;;;;;;5025720;28;20395;-73
2021/11/13 03:30:39;;;;;;;29.35;11.48;;;;;;;;;;5033326;28;20075;-73
2021/11/13 03:33:06;;;;;;;34.92;11.48;;;;;;;;;;5030421;28;20104;-73
2021/11/13 03:35:33;;;;;;;27.33;10.15;;;;;;;;;;5020040;28;20033;-73
2021/11/13 03:38:10;;;;;;;26.92;9.98;;;;;;;;;;5017398;28;20598;-73
2021/11/13 03:40:37;;;;;;;29.08;10.10;;;;;;;;;;5021775;28;20505;-73
2021/11/13 03:43:04;;;;;;;26.38;9.23;;;;;;;;;;5028626;28;20025;-73
2021/11/13 03:45:30;;;;;;;29.80;10.73;;;;;;;;;;5027007;28;20022;-74
2021/11/13 03:47:56;;;;;;;31.58;12.23;;;;;;;;;;5012194;28;20030;-74
2021/11/13 03:50:23;;;;;;;30.15;11.55;;;;;;;;;;5020433;28;20025;-73
2021/11/13 03:52:49;;;;;;;36.17;12.55;;;;;;;;;;5026335;28;20488;-73
2021/11/13 03:55:15;;;;;;;32.38;12.98;;;;;;;;;;5023088;28;20040;-73
2021/11/13 03:57:41;;;;;;;28.85;13.93;;;;;;;;;;5028875;28;20462;-74
2021/11/13 04:00:08;;;;;;;33.53;11.23;;;;;;;;;;5031788;28;20036;-73
2021/11/13 04:02:34;;;;;;;29.45;10.75;;;;;;;;;;5021064;28;20032;-74
2021/11/13 04:05:00;;;;;;;31.52;10.45;;;;;;;;;;5028214;28;20429;-74
2021/11/13 04:07:26;;;;;;;29.70;12.07;;;;;;;;;;5031635;28;20437;-74
2021/11/13 04:09:52;;;;;;;22.10;7.82;;;;;;;;;;5021097;28;20466;-74
2021/11/13 04:12:18;;;;;;;24.13;8.40;;;;;;;;;;5022003;28;20473;-73
2021/11/13 04:14:45;;;;;;;26.90;9.65;;;;;;;;;;5022361;28;20104;-73
2021/11/13 04:17:12;;;;;;;34.08;9.40;;;;;;;;;;5031598;28;20020;-74
2021/11/13 04:19:38;;;;;;;24.58;9.60;;;;;;;;;;5020365;28;20426;-74
2021/11/13 04:22:04;;;;;;;35.90;10.20;;;;;;;;;;5020121;28;20040;-74
2021/11/13 04:24:30;;;;;;;33.22;10.93;;;;;;;;;;5018419;28;20497;-73
2021/11/13 04:26:56;;;;;;;27.17;10.13;;;;;;;;;;5021300;28;20018;-74
2021/11/13 04:29:23;;;;;;;29.70;9.52;;;;;;;;;;5019883;28;20026;-74
2021/11/13 04:31:48;;;;;;;29.30;8.68;;;;;;;;;;5033212;28;20065;-73
2021/11/13 04:34:21;;;;;;;19.40;8.38;;;;;;;;;;5031975;28;20029;-73
2021/11/13 04:36:50;;;;;;;20.75;9.07;;;;;;;;;;5021494;28;20010;-74
2021/11/13 04:39:16;;;;;;;30.10;10.03;;;;;;;;;;5029084;28;20024;-73
2021/11/13 04:41:42;;;;;;;21.83;8.10;;;;;;;;;;5021150;28;20112;-73
2021/11/13 04:44:08;;;;;;;22.42;8.05;;;;;;;;;;5028314;28;20118;-73
2021/11/13 04:46:34;;;;;;;19.90;8.18;;;;;;;;;;5047979;28;20053;-73
2021/11/13 04:49:00;;;;;;;19.85;6.32;;;;;;;;;;5021486;28;20127;-73
2021/11/13 04:51:26;;;;;;;16.67;7.97;;;;;;;;;;5036178;28;20036;-73
2021/11/13 04:53:52;;;;;;;17.90;5.90;;;;;;;;;;5036791;28;20028;-73
2021/11/13 04:56:18;;;;;;;13.93;5.15;;;;;;;;;;5024951;28;20029;-73
2021/11/13 04:58:44;;;;;;;17.08;5.30;;;;;;;;;;5016385;28;20018;-73
2021/11/13 05:01:10;;;;;;;19.17;4.38;;;;;;;;;;5016202;28;20026;-73
2021/11/13 05:03:36;;;;;;;10.27;3.55;;;;;;;;;;5022760;28;20489;-74
2021/11/13 05:06:02;;;;;;;14.90;2.95;;;;;;;;;;5028762;28;20379;-73
2021/11/13 05:08:28;;;;;;;12.35;2.90;;;;;;;;;;5027915;28;20026;-73
2021/11/13 05:10:54;;;;;;;3.55;1.38;;;;;;;;;;5019885;28;20097;-73
2021/11/13 05:13:20;;;;;;;9.07;1.60;;;;;;;;;;5017838;28;20017;-73
2021/11/13 05:15:46;;;;;;;10.70;1.58;;;;;;;;;;5025146;28;20384;-73
2021/11/13 05:18:12;;;;;;;17.48;3.38;;;;;;;;;;5020327;28;20105;-74
2021/11/13 05:20:38;;;;;;;9.20;1.67;;;;;;;;;;5028010;28;20026;-73
2021/11/13 05:23:05;;;;;;;7.85;1.48;;;;;;;;;;5019018;28;20026;-73
2021/11/13 05:25:31;;;;;;;7.50;1.33;;;;;;;;;;5041403;28;20030;-73
2021/11/13 05:27:58;;;;;;;8.30;2.25;;;;;;;;;;5020036;28;20036;-73
2021/11/13 05:30:24;;;;;;;8.63;1.98;;;;;;;;;;5017599;28;20174;-73
2021/11/13 05:32:51;;;;;;;17.70;2.17;;;;;;;;;;5021012;28;20022;-74
2021/11/13 05:35:17;;;;;;;9.32;1.80;;;;;;;;;;5018386;28;20438;-73
2021/11/13 05:37:44;;;;;;;11.57;1.65;;;;;;;;;;5019841;28;20014;-73
2021/11/13 05:40:11;;;;;;;12.93;1.80;;;;;;;;;;5023330;28;20057;-73
2021/11/13 05:42:37;;;;;;;11.50;1.80;;;;;;;;;;5019814;28;20032;-74
2021/11/13 05:45:04;;;;;;;11.48;2.03;;;;;;;;;;5031727;28;20079;-73
2021/11/13 05:47:30;;;;;;;14.10;2.33;;;;;;;;;;5016726;28;20528;-74
2021/11/13 05:49:56;;;;;;;8.23;1.85;;;;;;;;;;5023086;28;20434;-73
2021/11/13 05:52:22;;;;;;;10.82;2.00;;;;;;;;;;5015254;28;20030;-73
2021/11/13 05:54:49;;;;;;;13.00;2.17;;;;;;;;;;5033920;28;20021;-73
2021/11/13 05:57:15;;;;;;;13.52;2.50;;;;;;;;;;5030201;28;20064;-74
2021/11/13 05:59:41;;;;;;;13.38;2.17;;;;;;;;;;5022013;28;20495;-74
2021/11/13 06:02:07;;;;;;;9.73;2.15;;;;;;;;;;5021695;28;20014;-73
2021/11/13 06:04:33;;;;;;;8.88;1.90;;;;;;;;;;5018383;28;20117;-74
2021/11/13 06:06:59;;;;;;;13.70;3.35;;;;;;;;;;5026640;28;20420;-73
2021/11/13 06:09:25;;;;;;;7.93;2.00;;;;;;;;;;5019443;28;20025;-73
2021/11/13 06:11:52;;;;;;;7.95;2.05;;;;;;;;;;5019573;28;20175;-74
2021/11/13 06:14:18;;;;;;;9.25;2.35;;;;;;;;;;5025824;28;20021;-74
2021/11/13 06:16:44;;;;;;;9.20;2.20;;;;;;;;;;5023058;28;20079;-73
2021/11/13 06:19:10;;;;;;;11.05;2.67;;;;;;;;;;5029843;28;20032;-73
2021/11/13 06:21:36;;;;;;;11.90;2.47;;;;;;;;;;5022417;28;20025;-73
2021/11/13 06:24:02;;;;;;;9.52;2.22;;;;;;;;;;5030756;28;20047;-73
2021/11/13 06:26:28;;;;;;;12.02;2.55;;;;;;;;;;5012136;28;20026;-74
2021/11/13 06:28:54;;;;;;;7.10;1.80;;;;;;;;;;5023653;28;21134;-74
2021/11/13 06:31:20;;;;;;;7.15;2.03;;;;;;;;;;5011397;28;20030;-74
2021/11/13 06:33:46;;;;;;;10.52;2.83;;;;;;;;;;5017754;28;20052;-74
2021/11/13 06:36:12;;;;;;;6.38;2.78;;;;;;;;;;5027206;28;20537;-74
2021/11/13 06:38:38;;;;;;;7.70;2.72;;;;;;;;;;5019471;28;20022;-73
2021/11/13 06:41:04;;;;;;;9.25;2.65;;;;;;;;;;5020118;28;20483;-74
2021/11/13 06:43:30;;;;;;;8.48;3.15;;;;;;;;;;5020998;28;20044;-74
2021/11/13 06:45:56;;;;;;;9.73;3.03;;;;;;;;;;5029401;28;20025;-74
2021/11/13 06:48:22;;;;;;;9.98;2.95;;;;;;;;;;5022330;28;20022;-74
2021/11/13 06:50:48;;;;;;;7.80;2.85;;;;;;;;;;5023273;28;20049;-74
2021/11/13 06:53:14;;;;;;;8.57;2.92;;;;;;;;;;5027166;28;20032;-74
2021/11/13 06:55:40;;;;;;;8.48;2.80;;;;;;;;;;5018606;28;20021;-74
2021/11/13 06:58:06;;;;;;;6.50;2.30;;;;;;;;;;5024889;28;20061;-73
2021/11/13 07:00:32;;;;;;;8.95;3.25;;;;;;;;;;5022274;28;20052;-73
2021/11/13 07:03:00;;;;;;;7.88;3.00;;;;;;;;;;5030525;28;20040;-73
2021/11/13 07:05:26;;;;;;;10.32;2.92;;;;;;;;;;5028337;28;20036;-73
2021/11/13 07:07:52;;;;;;;6.07;2.28;;;;;;;;;;5022392;28;20026;-73
2021/11/13 07:10:19;;;;;;;8.60;3.10;;;;;;;;;;5021348;28;20433;-74
2021/11/13 07:12:45;;;;;;;11.70;3.00;;;;;;;;;;5018114;28;20022;-73
2021/11/13 07:15:11;;;;;;;7.82;2.88;;;;;;;;;;5025059;28;20032;-73
2021/11/13 07:17:37;;;;;;;11.38;2.60;;;;;;;;;;5028706;28;20017;-73
2021/11/13 07:20:04;;;;;;;7.72;2.58;;;;;;;;;;5021198;28;20037;-73
2021/11/13 07:22:30;;;;;;;5.22;2.67;;;;;;;;;;5029272;28;20057;-73
2021/11/13 07:24:56;;;;;;;11.23;2.75;;;;;;;;;;5023285;28;20018;-73
2021/11/13 07:27:22;;;;;;;11.50;2.97;;;;;;;;;;5019839;28;20095;-73
2021/11/13 07:29:59;;;;;;;13.20;2.80;;;;;;;;;;5024722;28;20060;-73
2021/11/13 07:32:25;;;;;;;7.47;2.83;;;;;;;;;;5027637;28;20033;-73
2021/11/13 07:34:51;;;;;;;9.00;2.50;;;;;;;;;;5029701;28;20021;-73
2021/11/13 07:37:17;;;;;;;12.88;4.63;;;;;;;;;;5024802;28;20381;-73
2021/11/13 07:39:44;;;;;;;6.55;2.60;;;;;;;;;;5019871;28;20220;-73
2021/11/13 07:42:10;;;;;;;7.53;2.50;;;;;;;;;;5021470;28;20069;-73
2021/11/13 07:44:36;;;;;;;8.25;3.20;;;;;;;;;;5023894;28;20033;-73
2021/11/13 07:47:02;;;;;;;8.18;1.90;;;;;;;;;;5021968;28;20025;-74
2021/11/13 07:49:28;;;;;;;7.22;2.20;;;;;;;;;;5018593;28;20030;-73
2021/11/13 07:51:54;;;;;;;6.38;2.17;;;;;;;;;;5015814;28;20032;-73
2021/11/13 07:54:20;;;;;;;8.95;1.95;;;;;;;;;;5019852;28;20022;-74
2021/11/13 07:56:46;;;;;;;12.05;2.00;;;;;;;;;;5016984;28;20025;-74
2021/11/13 07:59:13;;;;;;;10.15;2.20;;;;;;;;;;5011695;28;20045;-74
2021/11/13 08:01:40;;;;;;;10.43;2.90;;;;;;;;;;5015377;28;20479;-73
2021/11/13 08:04:06;;;;;;;8.18;2.38;;;;;;;;;;5019797;28;20022;-73
2021/11/13 08:06:32;;;;;;;10.43;2.92;;;;;;;;;;5033637;23;20046;-68
2021/11/13 08:08:58;;;;;;;5.93;2.65;;;;;;;;;;5006294;28;20349;-68
2021/11/13 08:11:24;;;;;;;8.07;2.83;;;;;;;;;;5007057;28;20022;-68
2021/11/13 08:13:50;;;;;;;7.90;2.40;;;;;;;;;;5007612;28;20029;-69
2021/11/13 08:16:16;;;;;;;11.15;2.70;;;;;;;;;;5000276;28;20015;-68
2021/11/13 08:18:42;;;;;;;12.60;3.28;;;;;;;;;;4989572;28;20018;-69
2021/11/13 08:21:07;;;;;;;9.85;2.92;;;;;;;;;;4989457;28;20077;-69
2021/11/13 08:23:33;;;;;;;10.68;3.33;;;;;;;;;;4989308;28;20085;-69
2021/11/13 08:26:02;;;;;;;12.90;3.35;;;;;;;;;;4988305;28;20022;-68
2021/11/13 08:28:28;;;;;;;9.20;3.28;;;;;;;;;;4989708;28;20029;-68
2021/11/13 08:30:54;;;;;;;9.13;3.30;;;;;;;;;;4989127;28;20030;-68
2021/11/13 08:33:21;;;;;;;11.55;2.90;;;;;;;;;;4986129;28;20030;-69
2021/11/13 08:35:48;;;;;;;20.65;5.70;;;;;;;;;;4983753;28;20066;-68
2021/11/13 08:38:15;;;;;;;12.88;4.47;;;;;;;;;;4990846;28;20085;-73
2021/11/13 08:40:41;;;;;;;14.48;4.72;;;;;;;;;;4990107;28;20045;-71
2021/11/13 08:43:07;;;;;;;15.30;4.38;;;;;;;;;;4990131;28;20030;-71
2021/11/13 08:45:33;;;;;;;14.68;5.63;;;;;;;;;;4992081;28;20434;-71
2021/11/13 08:47:59;;;;;;;15.10;5.35;;;;;;;;;;4991761;28;20038;-69
2021/11/13 08:50:26;;;;;;;9.15;3.97;;;;;;;;;;4989811;28;20027;-69
2021/11/13 08:52:53;;;;;;;10.70;3.92;;;;;;;;;;4992980;28;20041;-69
2021/11/13 08:55:20;;;;;;;8.13;2.33;;;;;;;;;;4988603;28;20034;-71
2021/11/13 08:57:46;;;;;;;4.85;1.45;;;;;;;;;;4989551;28;20014;-71
2021/11/13 09:00:14;;;;;;;5.93;1.38;;;;;;;;;;4992329;28;20037;-71
2021/11/13 09:02:40;;;;;;;9.30;1.50;;;;;;;;;;4989726;28;20356;-69
2021/11/13 09:05:06;;;;;;;5.40;1.27;;;;;;;;;;4992108;28;20116;-70
2021/11/13 09:07:32;;;;;;;9.15;1.42;;;;;;;;;;4988517;28;20038;-69
2021/11/13 09:09:58;;;;;;;6.25;2.03;;;;;;;;;;4991617;28;20030;-70
2021/11/13 09:12:27;;;;;;;3.35;1.25;;;;;;;;;;4992192;28;20033;-70
2021/11/13 09:14:54;;;;;;;3.58;1.25;;;;;;;;;;4992012;28;20088;-70
2021/11/13 09:17:20;;;;;;;4.35;1.20;;;;;;;;;;4992579;28;20026;-70
2021/11/13 09:19:47;;;;;;;6.22;1.40;;;;;;;;;;4986905;28;20038;-70
2021/11/13 09:22:13;;;;;;;9.52;2.25;;;;;;;;;;4988986;28;20111;-70
2021/11/13 09:24:39;;;;;;;7.82;2.17;;;;;;;;;;4992823;28;20101;-70
2021/11/13 09:27:05;;;;;;;3.20;1.67;;;;;;;;;;4992750;28;20100;-71
2021/11/13 09:29:31;;;;;;;8.35;2.13;;;;;;;;;;4992658;28;20041;-70
2021/11/13 09:31:57;;;;;;;6.35;2.13;;;;;;;;;;4990918;28;20034;-70
2021/11/13 09:34:23;;;;;;;6.50;1.55;;;;;;;;;;4989531;28;20026;-70
2021/11/13 09:36:49;;;;;;;6.55;1.88;;;;;;;;;;4992523;28;20476;-70
2021/11/13 09:39:16;;;;;;;7.65;1.42;;;;;;;;;;4991339;28;20463;-70
2021/11/13 09:41:42;;;;;;;8.40;1.88;;;;;;;;;;4992873;28;20027;-70
2021/11/13 09:44:08;;;;;;;7.47;1.98;;;;;;;;;;4991291;28;20385;-71
2021/11/13 09:46:34;;;;;;;6.15;2.33;;;;;;;;;;4991349;28;20088;-71
2021/11/13 09:49:01;;;;;;;3.10;1.40;;;;;;;;;;4988971;28;20069;-71
2021/11/13 09:51:28;;;;;;;5.13;2.00;;;;;;;;;;4989475;28;20019;-72
2021/11/13 09:53:54;;;;;;;6.30;1.30;;;;;;;;;;4990395;28;20038;-73
2021/11/13 09:56:21;;;;;;;5.85;1.77;;;;;;;;;;4989620;28;20434;-72
2021/11/13 09:58:47;;;;;;;4.85;0.88;;;;;;;;;;4989895;28;20022;-71
2021/11/13 10:01:13;;;;;;;4.28;1.10;;;;;;;;;;4989034;28;20109;-72
2021/11/13 10:03:39;;;;;;;5.28;0.63;;;;;;;;;;4990589;28;20029;-72
2021/11/13 10:06:09;;;;;;;3.22;0.90;;;;;;;;;;4991128;28;20034;-72
2021/11/13 10:08:35;;;;;;;;;;;;;;;;;;4989947;28;20014;-72
2021/11/13 10:11:04;;;;;;;3.15;1.20;;;;;;;;;;4991261;28;20286;-72
2021/11/13 10:13:37;;;;;;;9.50;1.15;;;;;;;;;;4989311;28;20456;-71
2021/11/13 10:16:08;;;;;;;3.63;0.90;;;;;;;;;;4990916;28;20023;-72
2021/11/13 10:18:42;;;;;;;4.55;0.98;;;;;;;;;;4985483;28;20030;-72
2021/11/13 10:21:28;;;;;;;6.35;1.13;;;;;;;;;;4988323;28;20502;-72
2021/11/13 10:23:59;;;;;;;4.95;1.08;;;;;;;;;;4988353;28;20026;-72
2021/11/13 10:26:31;;;;;;;6.93;1.70;;;;;;;;;;4990299;28;20690;-72
2021/11/13 10:29:00;;;;;;;3.95;0.93;;;;;;;;;;4989699;28;20088;-72
2021/11/13 10:31:28;;;;;;;7.97;1.25;;;;;;;;;;4990660;28;20018;-72
2021/11/13 10:33:56;;;;;;;8.52;1.50;;;;;;;;;;4986947;28;20387;-74
2021/11/13 10:36:24;;;;;;;5.10;1.10;;;;;;;;;;4984556;28;20235;-74
2021/11/13 10:38:55;;;;;;;2.70;0.73;;;;;;;;;;4987315;28;20084;-75
2021/11/13 10:41:21;;;;;;;5.15;0.75;;;;;;;;;;4984139;28;20479;-74
2021/11/13 10:43:47;;;;;;;3.40;0.90;;;;;;;;;;4987433;28;20502;-75
2021/11/13 10:46:15;;;;;;;6.03;1.55;;;;;;;;;;4987004;28;20030;-75
2021/11/13 10:48:45;;;;;;;6.82;1.10;;;;;;;;;;4982477;28;20584;-75
2021/11/13 10:51:13;;;;;;;5.18;0.88;;;;;;;;;;4985717;28;20034;-73
2021/11/13 10:53:40;;;;;;;4.00;0.60;;;;;;;;;;4986080;28;20034;-73
2021/11/13 10:56:26;;;;;;;9.85;0.63;;;;;;;;;;4982270;28;20818;-71
2021/11/13 10:58:55;;;;;;;5.50;0.93;;;;;;;;;;4984293;28;20027;-73
2021/11/13 11:01:24;;;;;;;7.75;1.05;;;;;;;;;;4984696;28;20061;-72
2021/11/13 11:03:51;;;;;;;3.30;0.38;;;;;;;;;;4973990;28;20030;-72
2021/11/13 11:06:29;;;;;;;3.80;1.20;;;;;;;;;;4987091;28;20065;-72
2021/11/13 11:08:55;;;;;;;4.60;1.15;;;;;;;;;;4986891;28;20029;-72
2021/11/13 11:11:26;;;;;;;2.20;0.40;;;;;;;;;;4985649;28;20030;-72
2021/11/13 11:13:53;;;;;;;3.78;0.60;;;;;;;;;;4976814;28;20030;-72
2021/11/13 11:16:29;;;;;;;4.90;0.75;;;;;;;;;;4982449;28;20022;-73
2021/11/13 11:18:56;;;;;;;5.32;0.80;;;;;;;;;;4985195;28;20101;-72
2021/11/13 11:21:41;;;;;;;1.40;0.40;;;;;;;;;;4987063;28;20018;-72
2021/11/13 11:24:08;;;;;;;3.55;1.00;;;;;;;;;;4987424;28;20073;-72
2021/11/13 11:26:34;;;;;;;2.45;0.30;;;;;;;;;;4987962;28;20110;-72
2021/11/13 11:29:00;;;;;;;0.90;0.40;;;;;;;;;;4989817;28;20038;-72
2021/11/13 11:31:38;;;;;;;0.73;0.30;;;;;;;;;;4991693;28;20018;-72
2021/11/13 11:34:04;;;;;;;0.65;0.20;;;;;;;;;;4988337;28;20026;-72
2021/11/13 11:36:33;;;;;;;1.42;0.25;;;;;;;;;;4989102;28;20053;-72
2021/11/13 11:38:59;;;;;;;2.38;0.25;;;;;;;;;;4988402;28;20176;-72
2021/11/13 11:41:27;;;;;;;2.40;0.20;;;;;;;;;;4988188;28;20029;-72
2021/11/13 11:43:53;;;;;;;0.52;0.13;;;;;;;;;;4990302;28;20133;-72
2021/11/13 11:46:19;;;;;;;0.43;0.10;;;;;;;;;;4989160;28;20049;-72
2021/11/13 11:48:46;;;;;;;0.52;0.30;;;;;;;;;;4989332;28;20475;-72
2021/11/13 11:51:13;;;;;;;1.52;0.10;;;;;;;;;;4987869;28;20041;-72
2021/11/13 11:53:39;;;;;;;0.57;0.10;;;;;;;;;;4988572;28;20022;-73
2021/11/13 11:56:05;;;;;;;1.02;0.20;;;;;;;;;;4985054;28;20026;-72
2021/11/13 11:58:31;;;;;;;2.85;0.30;;;;;;;;;;4985508;28;20026;-72
2021/11/13 12:00:59;;;;;;;2.42;0.30;;;;;;;;;;4989278;28;20042;-72
2021/11/13 12:03:30;;;;;;;0.70;0.30;;;;;;;;;;4988231;28;20110;-72
2021/11/13 12:05:56;;;;;;;1.90;0.40;;;;;;;;;;4984998;28;20038;-72
2021/11/13 12:08:23;;;;;;;1.50;0.30;;;;;;;;;;4989748;28;20117;-72
2021/11/13 12:10:50;;;;;;;0.93;0.38;;;;;;;;;;4984987;28;20040;-72
2021/11/13 12:13:17;;;;;;;2.30;0.30;;;;;;;;;;4987024;28;20038;-72
2021/11/13 12:15:46;;;;;;;1.58;0.20;;;;;;;;;;4983718;28;20030;-72
2021/11/13 12:18:13;;;;;;;4.85;0.55;;;;;;;;;;4988792;28;20048;-72
2021/11/13 12:20:40;;;;;;;2.03;0.28;;;;;;;;;;4989534;28;20061;-72
2021/11/13 12:23:08;;;;;;;0.95;0.28;;;;;;;;;;4990517;28;20034;-72
2021/11/13 12:25:36;;;;;;;2.25;0.28;;;;;;;;;;4990090;28;20105;-72
2021/11/13 12:28:14;;;;;;;1.63;0.10;;;;;;;;;;4988698;28;20171;-72
2021/11/13 12:30:41;;;;;;;3.50;0.30;;;;;;;;;;4987854;28;20038;-72
2021/11/13 12:33:26;;;;;;;0.77;0.20;;;;;;;;;;4996259;28;20042;-72
2021/11/13 12:35:52;;;;;;;1.98;0.30;;;;;;;;;;4988095;28;20026;-72
2021/11/13 12:38:30;;;;;;;5.75;0.52;;;;;;;;;;4988818;28;20062;-72
2021/11/13 12:41:06;;;;;;;1.38;0.68;;;;;;;;;;4990282;28;20085;-72
2021/11/13 12:43:58;;;;;;;1.42;0.40;;;;;;;;;;4987722;28;20033;-72
2021/11/13 12:46:25;;;;;;;4.65;0.75;;;;;;;;;;4982135;28;20129;-73
2021/11/13 12:49:11;;;;;;;3.45;0.77;;;;;;;;;;4988970;28;20387;-71
2021/11/13 12:51:37;;;;;;;3.50;0.40;;;;;;;;;;4989478;28;20387;-72
2021/11/13 12:54:22;;;;;;;2.17;0.45;;;;;;;;;;4988866;28;20048;-72
2021/11/13 12:56:49;;;;;;;2.72;0.80;;;;;;;;;;4986368;28;20601;-72
2021/11/13 12:59:16;;;;;;;1.90;0.77;;;;;;;;;;4988131;28;20109;-72
2021/11/13 13:01:52;;;;;;;4.05;0.75;;;;;;;;;;4986949;28;20026;-72
2021/11/13 13:04:19;;;;;;;3.65;1.13;;;;;;;;;;4988837;28;20037;-72
2021/11/13 13:06:46;;;;;;;5.95;1.77;;;;;;;;;;4994477;28;20052;-72
2021/11/13 13:09:14;;;;;;;3.47;0.90;;;;;;;;;;4989622;28;20028;-72
2021/11/13 13:11:48;;;;;;;7.07;1.42;;;;;;;;;;4983122;28;20025;-72
2021/11/13 13:14:15;;;;;;;7.88;2.47;;;;;;;;;;4987908;28;20263;-73
2021/11/13 13:16:40;;;;;;;3.15;0.90;;;;;;;;;;4991334;28;20033;-72
2021/11/13 13:19:06;;;;;;;3.13;1.33;;;;;;;;;;4988937;28;20018;-71
2021/11/13 13:21:32;;;;;;;2.72;1.50;;;;;;;;;;4988981;28;20035;-71
2021/11/13 13:23:58;;;;;;;4.22;0.65;;;;;;;;;;4988665;28;20479;-71
2021/11/13 13:26:24;;;;;;;2.28;0.30;;;;;;;;;;4983697;28;20054;-72
2021/11/13 13:28:50;;;;;;;3.58;0.43;;;;;;;;;;4989173;28;20038;-72
2021/11/13 13:31:16;;;;;;;1.65;0.40;;;;;;;;;;4989226;28;20656;-72
2021/11/13 13:33:51;;;;;;;2.35;0.30;;;;;;;;;;4982147;28;20468;-72
2021/11/13 13:36:28;;;;;;;0.68;0.30;;;;;;;;;;4988836;28;20030;-72
2021/11/13 13:38:56;;;;;;;3.28;0.43;;;;;;;;;;4989826;28;20392;-72
2021/11/13 13:41:22;;;;;;;2.15;0.60;;;;;;;;;;4989282;28;20022;-72
2021/11/13 13:43:50;;;;;;;0.80;0.28;;;;;;;;;;4988138;28;20068;-72
2021/11/13 13:46:18;;;;;;;1.95;0.22;;;;;;;;;;4987052;28;20061;-72
2021/11/13 13:48:45;;;;;;;8.10;0.65;;;;;;;;;;4989320;28;20030;-72
2021/11/13 13:51:11;;;;;;;4.80;0.50;;;;;;;;;;4987392;28;20053;-72
2021/11/13 13:53:52;;;;;;;1.38;0.60;;;;;;;;;;4985841;28;20476;-72
2021/11/13 13:56:23;;;;;;;1.40;0.50;;;;;;;;;;4986269;28;20030;-72
2021/11/13 13:58:49;;;;;;;6.22;1.00;;;;;;;;;;4984600;28;20023;-71
2021/11/13 14:01:15;;;;;;;5.05;0.80;;;;;;;;;;4986228;28;20121;-72
2021/11/13 14:03:41;;;;;;;2.28;0.68;;;;;;;;;;4986199;28;20144;-71
2021/11/13 14:06:07;;;;;;;6.03;0.73;;;;;;;;;;4985886;28;20050;-72
2021/11/13 14:08:33;;;;;;;4.57;0.88;;;;;;;;;;4988113;28;20034;-72
2021/11/13 14:11:00;;;;;;;3.65;0.80;;;;;;;;;;4988301;28;20117;-71
2021/11/13 14:13:37;;;;;;;3.28;0.50;;;;;;;;;;4987585;28;20030;-72
2021/11/13 14:16:04;;;;;;;3.88;0.60;;;;;;;;;;4977414;28;20114;-72
2021/11/13 14:18:31;;;;;;;3.60;0.65;;;;;;;;;;4986710;28;20510;-72
2021/11/13 14:20:57;;;;;;;3.85;1.10;;;;;;;;;;4990378;28;20033;-71
2021/11/13 14:23:24;;;;;;;4.22;1.00;;;;;;;;;;4994922;28;20034;-70
2021/11/13 14:26:01;;;;;;;2.83;0.73;;;;;;;;;;4998697;28;20491;-70
2021/11/13 14:28:28;;;;;;;3.78;0.82;;;;;;;;;;4994295;28;20034;-68
2021/11/13 14:30:55;;;;;;;3.67;1.08;;;;;;;;;;4988730;28;20387;-68
2021/11/13 14:33:21;;;;;;;2.45;0.90;;;;;;;;;;4983150;28;20026;-68